sensor_id;sensor_type;location;lat;lon;timestamp;P1;durP1;ratioP1;P2;durP2;ratioP2
25333;SDS011;24559;53.590;9.764;2023-07-24T00:01:00;4.38;;;4.05;;
25333;SDS011;24559;53.590;9.764;2023-07-24T00:03:26;4.28;;;3.88;;
25333;SDS011;24559;53.590;9.764;2023-07-24T00:05:52;5.50;;;4.60;;
25333;SDS011;24559;53.590;9.764;2023-07-24T00:08:19;4.80;;;4.40;;
25333;SDS011;24559;53.590;9.764;2023-07-24T00:10:51;4.47;;;4.18;;
25333;SDS011;24559;53.590;9.764;2023-07-24T00:13:17;5.28;;;4.55;;
25333;SDS011;24559;53.590;9.764;2023-07-24T00:15:43;4.90;;;4.20;;
25333;SDS011;24559;53.590;9.764;2023-07-24T00:18:09;4.32;;;3.95;;
25333;SDS011;24559;53.590;9.764;2023-07-24T00:20:36;4.28;;;3.95;;
25333;SDS011;24559;53.590;9.764;2023-07-24T00:23:02;4.32;;;3.92;;
25333;SDS011;24559;53.590;9.764;2023-07-24T00:25:28;4.65;;;4.18;;
25333;SDS011;24559;53.590;9.764;2023-07-24T00:27:54;4.10;;;3.80;;
25333;SDS011;24559;53.590;9.764;2023-07-24T00:30:20;4.50;;;3.90;;
25333;SDS011;24559;53.590;9.764;2023-07-24T00:32:46;4.47;;;4.10;;
25333;SDS011;24559;53.590;9.764;2023-07-24T00:35:12;4.45;;;4.15;;
25333;SDS011;24559;53.590;9.764;2023-07-24T00:37:39;4.20;;;3.90;;
25333;SDS011;24559;53.590;9.764;2023-07-24T00:40:06;4.40;;;4.00;;
25333;SDS011;24559;53.590;9.764;2023-07-24T00:42:32;5.15;;;4.13;;
25333;SDS011;24559;53.590;9.764;2023-07-24T00:44:59;3.90;;;3.60;;
25333;SDS011;24559;53.590;9.764;2023-07-24T00:47:25;4.07;;;3.78;;
25333;SDS011;24559;53.590;9.764;2023-07-24T00:49:52;4.53;;;4.07;;
25333;SDS011;24559;53.590;9.764;2023-07-24T00:52:19;4.93;;;4.53;;
25333;SDS011;24559;53.590;9.764;2023-07-24T00:54:45;4.47;;;4.18;;
25333;SDS011;24559;53.590;9.764;2023-07-24T00:57:12;5.93;;;4.40;;
25333;SDS011;24559;53.590;9.764;2023-07-24T00:59:38;6.45;;;4.78;;
25333;SDS011;24559;53.590;9.764;2023-07-24T01:02:07;5.93;;;5.53;;
25333;SDS011;24559;53.590;9.764;2023-07-24T01:04:33;5.70;;;5.20;;
25333;SDS011;24559;53.590;9.764;2023-07-24T01:07:00;5.82;;;5.32;;
25333;SDS011;24559;53.590;9.764;2023-07-24T01:09:26;6.22;;;5.43;;
25333;SDS011;24559;53.590;9.764;2023-07-24T01:12:01;6.85;;;6.35;;
25333;SDS011;24559;53.590;9.764;2023-07-24T01:17:04;6.80;;;6.20;;
25333;SDS011;24559;53.590;9.764;2023-07-24T01:19:46;8.02;;;6.40;;
25333;SDS011;24559;53.590;9.764;2023-07-24T01:27:24;6.93;;;6.32;;
25333;SDS011;24559;53.590;9.764;2023-07-24T01:29:51;7.90;;;7.30;;
25333;SDS011;24559;53.590;9.764;2023-07-24T01:32:21;8.75;;;7.85;;
25333;SDS011;24559;53.590;9.764;2023-07-24T01:34:47;8.82;;;8.10;;
25333;SDS011;24559;53.590;9.764;2023-07-24T01:37:14;8.45;;;7.65;;
25333;SDS011;24559;53.590;9.764;2023-07-24T01:39:40;7.95;;;7.15;;
25333;SDS011;24559;53.590;9.764;2023-07-24T01:42:07;7.22;;;6.57;;
25333;SDS011;24559;53.590;9.764;2023-07-24T01:44:34;7.90;;;7.15;;
25333;SDS011;24559;53.590;9.764;2023-07-24T01:47:00;7.35;;;5.97;;
25333;SDS011;24559;53.590;9.764;2023-07-24T01:49:31;7.07;;;6.38;;
25333;SDS011;24559;53.590;9.764;2023-07-24T01:51:57;6.57;;;5.90;;
25333;SDS011;24559;53.590;9.764;2023-07-24T01:54:23;8.07;;;5.85;;
25333;SDS011;24559;53.590;9.764;2023-07-24T01:56:49;7.03;;;6.45;;
25333;SDS011;24559;53.590;9.764;2023-07-24T01:59:16;7.28;;;5.72;;
25333;SDS011;24559;53.590;9.764;2023-07-24T02:01:42;7.25;;;6.05;;
25333;SDS011;24559;53.590;9.764;2023-07-24T02:04:08;6.20;;;5.57;;
25333;SDS011;24559;53.590;9.764;2023-07-24T02:06:34;5.45;;;5.13;;
25333;SDS011;24559;53.590;9.764;2023-07-24T02:09:00;5.85;;;5.22;;
25333;SDS011;24559;53.590;9.764;2023-07-24T02:11:26;5.15;;;4.75;;
25333;SDS011;24559;53.590;9.764;2023-07-24T02:13:53;5.97;;;5.50;;
25333;SDS011;24559;53.590;9.764;2023-07-24T02:16:19;5.90;;;5.40;;
25333;SDS011;24559;53.590;9.764;2023-07-24T02:18:45;7.03;;;6.43;;
25333;SDS011;24559;53.590;9.764;2023-07-24T02:21:13;7.93;;;7.15;;
25333;SDS011;24559;53.590;9.764;2023-07-24T02:23:39;6.88;;;6.38;;
25333;SDS011;24559;53.590;9.764;2023-07-24T02:26:05;7.07;;;6.47;;
25333;SDS011;24559;53.590;9.764;2023-07-24T02:28:33;7.45;;;6.85;;
25333;SDS011;24559;53.590;9.764;2023-07-24T02:30:59;7.57;;;6.97;;
25333;SDS011;24559;53.590;9.764;2023-07-24T02:33:26;7.15;;;6.55;;
25333;SDS011;24559;53.590;9.764;2023-07-24T02:35:52;10.02;;;7.80;;
25333;SDS011;24559;53.590;9.764;2023-07-24T02:38:18;8.80;;;8.00;;
25333;SDS011;24559;53.590;9.764;2023-07-24T02:40:45;10.27;;;8.85;;
25333;SDS011;24559;53.590;9.764;2023-07-24T02:43:11;9.30;;;8.40;;
25333;SDS011;24559;53.590;9.764;2023-07-24T02:45:37;8.60;;;7.80;;
25333;SDS011;24559;53.590;9.764;2023-07-24T02:48:04;8.52;;;7.88;;
25333;SDS011;24559;53.590;9.764;2023-07-24T02:50:30;8.63;;;7.90;;
25333;SDS011;24559;53.590;9.764;2023-07-24T02:52:56;9.38;;;7.30;;
25333;SDS011;24559;53.590;9.764;2023-07-24T02:55:23;9.40;;;7.55;;
25333;SDS011;24559;53.590;9.764;2023-07-24T02:57:49;7.90;;;6.90;;
25333;SDS011;24559;53.590;9.764;2023-07-24T03:00:15;7.47;;;6.88;;
25333;SDS011;24559;53.590;9.764;2023-07-24T03:02:41;7.35;;;6.75;;
25333;SDS011;24559;53.590;9.764;2023-07-24T03:05:08;7.72;;;6.20;;
25333;SDS011;24559;53.590;9.764;2023-07-24T03:07:34;7.40;;;6.65;;
25333;SDS011;24559;53.590;9.764;2023-07-24T03:10:01;8.23;;;6.50;;
25333;SDS011;24559;53.590;9.764;2023-07-24T03:12:29;6.75;;;6.10;;
25333;SDS011;24559;53.590;9.764;2023-07-24T03:14:55;6.72;;;6.10;;
25333;SDS011;24559;53.590;9.764;2023-07-24T03:17:22;5.63;;;5.20;;
25333;SDS011;24559;53.590;9.764;2023-07-24T03:19:48;6.32;;;5.82;;
25333;SDS011;24559;53.590;9.764;2023-07-24T03:22:15;5.65;;;5.25;;
25333;SDS011;24559;53.590;9.764;2023-07-24T03:24:41;6.55;;;5.65;;
25333;SDS011;24559;53.590;9.764;2023-07-24T03:27:07;6.75;;;6.15;;
25333;SDS011;24559;53.590;9.764;2023-07-24T03:29:33;6.57;;;6.07;;
25333;SDS011;24559;53.590;9.764;2023-07-24T03:32:03;6.57;;;5.97;;
25333;SDS011;24559;53.590;9.764;2023-07-24T03:34:29;5.55;;;5.10;;
25333;SDS011;24559;53.590;9.764;2023-07-24T03:36:55;6.22;;;5.68;;
25333;SDS011;24559;53.590;9.764;2023-07-24T03:39:21;7.07;;;6.43;;
25333;SDS011;24559;53.590;9.764;2023-07-24T03:41:47;6.22;;;5.70;;
25333;SDS011;24559;53.590;9.764;2023-07-24T03:44:14;6.70;;;6.10;;
25333;SDS011;24559;53.590;9.764;2023-07-24T03:46:41;6.43;;;5.65;;
25333;SDS011;24559;53.590;9.764;2023-07-24T03:49:07;6.10;;;5.55;;
25333;SDS011;24559;53.590;9.764;2023-07-24T03:51:33;6.85;;;5.88;;
25333;SDS011;24559;53.590;9.764;2023-07-24T03:53:59;8.13;;;5.80;;
25333;SDS011;24559;53.590;9.764;2023-07-24T03:56:25;6.38;;;5.88;;
25333;SDS011;24559;53.590;9.764;2023-07-24T03:58:52;7.22;;;6.32;;
25333;SDS011;24559;53.590;9.764;2023-07-24T04:01:18;9.30;;;6.10;;
25333;SDS011;24559;53.590;9.764;2023-07-24T04:03:44;6.70;;;5.40;;
25333;SDS011;24559;53.590;9.764;2023-07-24T04:06:11;6.60;;;6.00;;
25333;SDS011;24559;53.590;9.764;2023-07-24T04:08:37;7.13;;;5.60;;
25333;SDS011;24559;53.590;9.764;2023-07-24T04:11:06;6.63;;;5.60;;
25333;SDS011;24559;53.590;9.764;2023-07-24T04:13:32;6.43;;;5.88;;
25333;SDS011;24559;53.590;9.764;2023-07-24T04:15:58;5.20;;;4.90;;
25333;SDS011;24559;53.590;9.764;2023-07-24T04:18:24;8.10;;;6.07;;
25333;SDS011;24559;53.590;9.764;2023-07-24T04:20:51;6.35;;;5.75;;
25333;SDS011;24559;53.590;9.764;2023-07-24T04:23:17;6.95;;;5.57;;
25333;SDS011;24559;53.590;9.764;2023-07-24T04:25:43;9.07;;;6.00;;
25333;SDS011;24559;53.590;9.764;2023-07-24T04:28:09;7.32;;;6.43;;
25333;SDS011;24559;53.590;9.764;2023-07-24T04:30:35;7.32;;;6.15;;
25333;SDS011;24559;53.590;9.764;2023-07-24T04:33:01;6.90;;;6.10;;
25333;SDS011;24559;53.590;9.764;2023-07-24T04:35:27;8.82;;;6.20;;
25333;SDS011;24559;53.590;9.764;2023-07-24T04:37:54;8.68;;;6.20;;
25333;SDS011;24559;53.590;9.764;2023-07-24T04:40:22;9.25;;;6.07;;
25333;SDS011;24559;53.590;9.764;2023-07-24T04:42:48;6.93;;;6.25;;
25333;SDS011;24559;53.590;9.764;2023-07-24T04:45:14;7.68;;;6.25;;
25333;SDS011;24559;53.590;9.764;2023-07-24T04:47:40;7.05;;;6.38;;
25333;SDS011;24559;53.590;9.764;2023-07-24T04:50:07;6.82;;;6.22;;
25333;SDS011;24559;53.590;9.764;2023-07-24T04:52:33;7.18;;;6.47;;
25333;SDS011;24559;53.590;9.764;2023-07-24T04:54:59;6.80;;;6.03;;
25333;SDS011;24559;53.590;9.764;2023-07-24T04:57:25;6.28;;;5.70;;
25333;SDS011;24559;53.590;9.764;2023-07-24T04:59:52;7.90;;;6.28;;
25333;SDS011;24559;53.590;9.764;2023-07-24T05:02:18;9.73;;;6.88;;
25333;SDS011;24559;53.590;9.764;2023-07-24T05:04:44;8.27;;;6.00;;
25333;SDS011;24559;53.590;9.764;2023-07-24T05:07:10;6.25;;;5.65;;
25333;SDS011;24559;53.590;9.764;2023-07-24T05:09:36;6.65;;;6.05;;
25333;SDS011;24559;53.590;9.764;2023-07-24T05:12:02;7.75;;;6.13;;
25333;SDS011;24559;53.590;9.764;2023-07-24T05:14:29;7.32;;;6.60;;
25333;SDS011;24559;53.590;9.764;2023-07-24T05:16:55;6.57;;;4.95;;
25333;SDS011;24559;53.590;9.764;2023-07-24T05:19:21;6.20;;;5.80;;
25333;SDS011;24559;53.590;9.764;2023-07-24T05:21:47;6.78;;;5.65;;
25333;SDS011;24559;53.590;9.764;2023-07-24T05:24:13;8.18;;;6.13;;
25333;SDS011;24559;53.590;9.764;2023-07-24T05:26:40;6.60;;;5.90;;
25333;SDS011;24559;53.590;9.764;2023-07-24T05:29:06;5.80;;;5.30;;
25333;SDS011;24559;53.590;9.764;2023-07-24T05:31:35;6.47;;;5.88;;
25333;SDS011;24559;53.590;9.764;2023-07-24T05:34:01;7.55;;;5.63;;
25333;SDS011;24559;53.590;9.764;2023-07-24T05:36:28;6.53;;;5.93;;
25333;SDS011;24559;53.590;9.764;2023-07-24T05:38:55;6.60;;;6.00;;
25333;SDS011;24559;53.590;9.764;2023-07-24T05:41:21;6.88;;;5.47;;
25333;SDS011;24559;53.590;9.764;2023-07-24T05:43:47;6.45;;;5.22;;
25333;SDS011;24559;53.590;9.764;2023-07-24T05:46:14;5.95;;;5.45;;
25333;SDS011;24559;53.590;9.764;2023-07-24T05:48:40;6.97;;;5.90;;
25333;SDS011;24559;53.590;9.764;2023-07-24T05:51:07;5.65;;;5.15;;
25333;SDS011;24559;53.590;9.764;2023-07-24T05:53:34;6.07;;;5.47;;
25333;SDS011;24559;53.590;9.764;2023-07-24T05:56:00;6.85;;;5.60;;
25333;SDS011;24559;53.590;9.764;2023-07-24T05:58:27;5.50;;;4.97;;
25333;SDS011;24559;53.590;9.764;2023-07-24T06:00:53;5.82;;;5.20;;
25333;SDS011;24559;53.590;9.764;2023-07-24T06:03:23;5.15;;;4.75;;
25333;SDS011;24559;53.590;9.764;2023-07-24T06:05:50;5.40;;;4.90;;
25333;SDS011;24559;53.590;9.764;2023-07-24T06:08:17;5.78;;;5.28;;
25333;SDS011;24559;53.590;9.764;2023-07-24T06:10:45;6.00;;;5.40;;
25333;SDS011;24559;53.590;9.764;2023-07-24T06:13:11;6.13;;;5.50;;
25333;SDS011;24559;53.590;9.764;2023-07-24T06:15:37;6.30;;;5.78;;
25333;SDS011;24559;53.590;9.764;2023-07-24T06:18:04;7.07;;;5.88;;
25333;SDS011;24559;53.590;9.764;2023-07-24T06:20:30;6.60;;;6.10;;
25333;SDS011;24559;53.590;9.764;2023-07-24T06:22:56;5.40;;;5.00;;
25333;SDS011;24559;53.590;9.764;2023-07-24T06:25:22;5.82;;;5.38;;
25333;SDS011;24559;53.590;9.764;2023-07-24T06:27:48;5.75;;;5.30;;
25333;SDS011;24559;53.590;9.764;2023-07-24T06:30:15;5.70;;;5.20;;
25333;SDS011;24559;53.590;9.764;2023-07-24T06:32:44;5.75;;;5.25;;
25333;SDS011;24559;53.590;9.764;2023-07-24T06:35:10;6.20;;;5.60;;
25333;SDS011;24559;53.590;9.764;2023-07-24T06:37:36;6.38;;;5.78;;
25333;SDS011;24559;53.590;9.764;2023-07-24T06:40:03;6.30;;;5.80;;
25333;SDS011;24559;53.590;9.764;2023-07-24T06:42:29;5.55;;;5.05;;
25333;SDS011;24559;53.590;9.764;2023-07-24T06:44:57;6.30;;;5.70;;
25333;SDS011;24559;53.590;9.764;2023-07-24T06:47:33;5.47;;;5.07;;
25333;SDS011;24559;53.590;9.764;2023-07-24T06:53:08;8.23;;;5.80;;
25333;SDS011;24559;53.590;9.764;2023-07-24T06:55:34;6.18;;;5.25;;
25333;SDS011;24559;53.590;9.764;2023-07-24T06:58:01;6.20;;;5.70;;
25333;SDS011;24559;53.590;9.764;2023-07-24T07:00:27;5.65;;;5.18;;
25333;SDS011;24559;53.590;9.764;2023-07-24T07:02:53;5.60;;;5.10;;
25333;SDS011;24559;53.590;9.764;2023-07-24T07:05:20;6.57;;;5.97;;
25333;SDS011;24559;53.590;9.764;2023-07-24T07:07:46;5.95;;;5.43;;
25333;SDS011;24559;53.590;9.764;2023-07-24T07:10:12;6.45;;;5.85;;
25333;SDS011;24559;53.590;9.764;2023-07-24T07:12:39;6.00;;;5.60;;
25333;SDS011;24559;53.590;9.764;2023-07-24T07:15:05;6.32;;;5.82;;
25333;SDS011;24559;53.590;9.764;2023-07-24T07:17:31;7.47;;;5.80;;
25333;SDS011;24559;53.590;9.764;2023-07-24T07:19:59;6.40;;;5.85;;
25333;SDS011;24559;53.590;9.764;2023-07-24T07:22:25;7.53;;;6.30;;
25333;SDS011;24559;53.590;9.764;2023-07-24T07:24:51;6.13;;;5.63;;
25333;SDS011;24559;53.590;9.764;2023-07-24T07:27:17;6.15;;;5.65;;
25333;SDS011;24559;53.590;9.764;2023-07-24T07:29:43;7.57;;;6.18;;
25333;SDS011;24559;53.590;9.764;2023-07-24T07:32:10;6.72;;;6.10;;
25333;SDS011;24559;53.590;9.764;2023-07-24T07:34:36;7.22;;;6.30;;
25333;SDS011;24559;53.590;9.764;2023-07-24T07:37:04;5.80;;;5.22;;
25333;SDS011;24559;53.590;9.764;2023-07-24T07:39:30;6.03;;;5.63;;
25333;SDS011;24559;53.590;9.764;2023-07-24T07:41:57;7.38;;;6.55;;
25333;SDS011;24559;53.590;9.764;2023-07-24T07:44:23;6.43;;;5.93;;
25333;SDS011;24559;53.590;9.764;2023-07-24T07:46:49;6.05;;;5.57;;
25333;SDS011;24559;53.590;9.764;2023-07-24T07:49:16;6.45;;;5.93;;
25333;SDS011;24559;53.590;9.764;2023-07-24T07:51:42;6.65;;;5.95;;
25333;SDS011;24559;53.590;9.764;2023-07-24T07:54:08;6.40;;;5.90;;
25333;SDS011;24559;53.590;9.764;2023-07-24T07:56:35;6.20;;;5.70;;
25333;SDS011;24559;53.590;9.764;2023-07-24T07:59:01;7.25;;;6.65;;
25333;SDS011;24559;53.590;9.764;2023-07-24T08:01:27;5.60;;;5.20;;
25333;SDS011;24559;53.590;9.764;2023-07-24T08:03:54;14.27;;;6.28;;
25333;SDS011;24559;53.590;9.764;2023-07-24T08:06:20;6.65;;;6.20;;
25333;SDS011;24559;53.590;9.764;2023-07-24T08:08:47;6.28;;;5.65;;
25333;SDS011;24559;53.590;9.764;2023-07-24T08:11:13;6.30;;;5.85;;
25333;SDS011;24559;53.590;9.764;2023-07-24T08:13:39;7.20;;;6.50;;
25333;SDS011;24559;53.590;9.764;2023-07-24T08:16:12;6.30;;;5.75;;
25333;SDS011;24559;53.590;9.764;2023-07-24T08:18:43;7.25;;;6.55;;
25333;SDS011;24559;53.590;9.764;2023-07-24T08:21:09;6.10;;;5.63;;
25333;SDS011;24559;53.590;9.764;2023-07-24T08:23:35;6.80;;;6.15;;
25333;SDS011;24559;53.590;9.764;2023-07-24T08:26:01;6.45;;;5.85;;
25333;SDS011;24559;53.590;9.764;2023-07-24T08:28:28;5.57;;;5.18;;
25333;SDS011;24559;53.590;9.764;2023-07-24T08:30:58;7.28;;;6.57;;
25333;SDS011;24559;53.590;9.764;2023-07-24T08:33:24;6.00;;;5.53;;
25333;SDS011;24559;53.590;9.764;2023-07-24T08:35:58;6.60;;;6.10;;
25333;SDS011;24559;53.590;9.764;2023-07-24T08:38:24;6.72;;;6.10;;
25333;SDS011;24559;53.590;9.764;2023-07-24T08:40:59;6.80;;;5.95;;
25333;SDS011;24559;53.590;9.764;2023-07-24T08:43:26;7.20;;;5.35;;
25333;SDS011;24559;53.590;9.764;2023-07-24T08:45:53;10.52;;;5.40;;
25333;SDS011;24559;53.590;9.764;2023-07-24T08:48:19;5.72;;;5.30;;
25333;SDS011;24559;53.590;9.764;2023-07-24T08:50:46;6.20;;;5.75;;
25333;SDS011;24559;53.590;9.764;2023-07-24T08:53:13;6.10;;;5.60;;
25333;SDS011;24559;53.590;9.764;2023-07-24T08:55:40;6.47;;;5.43;;
25333;SDS011;24559;53.590;9.764;2023-07-24T08:58:07;5.65;;;5.10;;
25333;SDS011;24559;53.590;9.764;2023-07-24T09:00:34;5.57;;;5.15;;
25333;SDS011;24559;53.590;9.764;2023-07-24T09:03:00;5.68;;;5.18;;
25333;SDS011;24559;53.590;9.764;2023-07-24T09:05:27;6.75;;;6.15;;
25333;SDS011;24559;53.590;9.764;2023-07-24T09:07:53;5.20;;;4.82;;
25333;SDS011;24559;53.590;9.764;2023-07-24T09:10:26;5.97;;;5.10;;
25333;SDS011;24559;53.590;9.764;2023-07-24T09:12:52;5.18;;;4.78;;
25333;SDS011;24559;53.590;9.764;2023-07-24T09:15:18;4.63;;;4.20;;
25333;SDS011;24559;53.590;9.764;2023-07-24T09:17:48;5.75;;;5.25;;
25333;SDS011;24559;53.590;9.764;2023-07-24T09:20:15;7.18;;;4.72;;
25333;SDS011;24559;53.590;9.764;2023-07-24T09:22:51;5.45;;;4.95;;
25333;SDS011;24559;53.590;9.764;2023-07-24T09:25:18;4.70;;;4.30;;
25333;SDS011;24559;53.590;9.764;2023-07-24T09:27:44;4.60;;;4.30;;
25333;SDS011;24559;53.590;9.764;2023-07-24T09:30:14;5.40;;;4.93;;
25333;SDS011;24559;53.590;9.764;2023-07-24T09:32:41;4.95;;;4.65;;
25333;SDS011;24559;53.590;9.764;2023-07-24T09:35:17;7.25;;;5.32;;
25333;SDS011;24559;53.590;9.764;2023-07-24T09:37:43;5.35;;;4.95;;
25333;SDS011;24559;53.590;9.764;2023-07-24T09:40:10;5.43;;;4.93;;
25333;SDS011;24559;53.590;9.764;2023-07-24T09:42:37;4.63;;;4.32;;
25333;SDS011;24559;53.590;9.764;2023-07-24T09:45:05;4.53;;;4.22;;
25333;SDS011;24559;53.590;9.764;2023-07-24T09:47:33;4.32;;;4.05;;
25333;SDS011;24559;53.590;9.764;2023-07-24T09:50:00;5.80;;;5.30;;
25333;SDS011;24559;53.590;9.764;2023-07-24T09:52:29;4.70;;;4.40;;
25333;SDS011;24559;53.590;9.764;2023-07-24T09:54:58;5.00;;;4.60;;
25333;SDS011;24559;53.590;9.764;2023-07-24T09:57:25;5.05;;;4.65;;
25333;SDS011;24559;53.590;9.764;2023-07-24T09:59:52;4.30;;;4.10;;
25333;SDS011;24559;53.590;9.764;2023-07-24T10:02:19;4.68;;;4.28;;
25333;SDS011;24559;53.590;9.764;2023-07-24T10:04:45;4.80;;;4.30;;
25333;SDS011;24559;53.590;9.764;2023-07-24T10:07:12;4.95;;;4.60;;
25333;SDS011;24559;53.590;9.764;2023-07-24T10:09:41;4.47;;;4.07;;
25333;SDS011;24559;53.590;9.764;2023-07-24T10:12:08;5.57;;;4.88;;
25333;SDS011;24559;53.590;9.764;2023-07-24T10:14:35;4.82;;;4.47;;
25333;SDS011;24559;53.590;9.764;2023-07-24T10:17:01;4.95;;;4.55;;
25333;SDS011;24559;53.590;9.764;2023-07-24T10:19:49;4.65;;;4.35;;
25333;SDS011;24559;53.590;9.764;2023-07-24T10:22:18;4.72;;;4.43;;
25333;SDS011;24559;53.590;9.764;2023-07-24T10:24:44;5.57;;;5.10;;
25333;SDS011;24559;53.590;9.764;2023-07-24T10:27:11;4.82;;;4.40;;
25333;SDS011;24559;53.590;9.764;2023-07-24T10:29:37;4.60;;;4.30;;
25333;SDS011;24559;53.590;9.764;2023-07-24T10:32:04;5.45;;;4.97;;
25333;SDS011;24559;53.590;9.764;2023-07-24T10:34:37;4.50;;;4.15;;
25333;SDS011;24559;53.590;9.764;2023-07-24T10:37:07;5.22;;;4.72;;
25333;SDS011;24559;53.590;9.764;2023-07-24T10:39:37;4.57;;;4.28;;
25333;SDS011;24559;53.590;9.764;2023-07-24T10:42:05;4.65;;;4.25;;
25333;SDS011;24559;53.590;9.764;2023-07-24T10:44:31;3.92;;;3.63;;
25333;SDS011;24559;53.590;9.764;2023-07-24T10:46:58;8.18;;;5.15;;
25333;SDS011;24559;53.590;9.764;2023-07-24T10:49:24;4.70;;;4.40;;
25333;SDS011;24559;53.590;9.764;2023-07-24T10:51:57;4.97;;;4.40;;
25333;SDS011;24559;53.590;9.764;2023-07-24T10:54:23;5.28;;;4.88;;
25333;SDS011;24559;53.590;9.764;2023-07-24T10:56:49;4.65;;;4.32;;
25333;SDS011;24559;53.590;9.764;2023-07-24T10:59:15;5.60;;;4.38;;
25333;SDS011;24559;53.590;9.764;2023-07-24T11:01:42;4.68;;;4.30;;
25333;SDS011;24559;53.590;9.764;2023-07-24T11:04:08;5.05;;;4.53;;
25333;SDS011;24559;53.590;9.764;2023-07-24T11:06:37;5.32;;;4.88;;
25333;SDS011;24559;53.590;9.764;2023-07-24T11:09:03;4.65;;;4.35;;
25333;SDS011;24559;53.590;9.764;2023-07-24T11:11:30;5.15;;;4.68;;
25333;SDS011;24559;53.590;9.764;2023-07-24T11:13:57;5.18;;;4.68;;
25333;SDS011;24559;53.590;9.764;2023-07-24T11:16:23;5.25;;;4.78;;
25333;SDS011;24559;53.590;9.764;2023-07-24T11:18:50;4.82;;;4.38;;
25333;SDS011;24559;53.590;9.764;2023-07-24T11:21:21;4.28;;;3.95;;
25333;SDS011;24559;53.590;9.764;2023-07-24T11:23:49;4.47;;;4.10;;
25333;SDS011;24559;53.590;9.764;2023-07-24T11:26:15;3.75;;;3.55;;
25333;SDS011;24559;53.590;9.764;2023-07-24T11:28:44;4.72;;;4.32;;
25333;SDS011;24559;53.590;9.764;2023-07-24T11:31:10;4.15;;;3.85;;
25333;SDS011;24559;53.590;9.764;2023-07-24T11:33:36;4.28;;;3.90;;
25333;SDS011;24559;53.590;9.764;2023-07-24T11:36:03;4.30;;;4.00;;
25333;SDS011;24559;53.590;9.764;2023-07-24T11:38:30;4.18;;;3.95;;
25333;SDS011;24559;53.590;9.764;2023-07-24T11:40:56;4.13;;;3.83;;
25333;SDS011;24559;53.590;9.764;2023-07-24T11:43:23;3.95;;;3.47;;
25333;SDS011;24559;53.590;9.764;2023-07-24T11:45:50;3.92;;;3.58;;
25333;SDS011;24559;53.590;9.764;2023-07-24T11:48:20;3.92;;;3.63;;
25333;SDS011;24559;53.590;9.764;2023-07-24T11:50:50;4.30;;;4.00;;
25333;SDS011;24559;53.590;9.764;2023-07-24T11:53:26;3.58;;;3.38;;
25333;SDS011;24559;53.590;9.764;2023-07-24T11:55:54;3.92;;;3.63;;
25333;SDS011;24559;53.590;9.764;2023-07-24T11:58:21;5.90;;;3.28;;
25333;SDS011;24559;53.590;9.764;2023-07-24T12:00:48;3.53;;;3.33;;
25333;SDS011;24559;53.590;9.764;2023-07-24T12:03:20;3.40;;;3.20;;
25333;SDS011;24559;53.590;9.764;2023-07-24T12:05:46;4.13;;;3.83;;
25333;SDS011;24559;53.590;9.764;2023-07-24T12:08:13;3.30;;;3.10;;
25333;SDS011;24559;53.590;9.764;2023-07-24T12:10:40;3.85;;;3.50;;
25333;SDS011;24559;53.590;9.764;2023-07-24T12:13:06;3.30;;;3.10;;
25333;SDS011;24559;53.590;9.764;2023-07-24T12:15:33;3.42;;;3.20;;
25333;SDS011;24559;53.590;9.764;2023-07-24T12:18:01;2.83;;;2.72;;
25333;SDS011;24559;53.590;9.764;2023-07-24T12:20:27;3.67;;;3.42;;
25333;SDS011;24559;53.590;9.764;2023-07-24T12:22:54;3.50;;;3.20;;
25333;SDS011;24559;53.590;9.764;2023-07-24T12:25:20;3.17;;;2.97;;
25333;SDS011;24559;53.590;9.764;2023-07-24T12:27:47;3.00;;;2.90;;
25333;SDS011;24559;53.590;9.764;2023-07-24T12:30:13;3.42;;;3.22;;
25333;SDS011;24559;53.590;9.764;2023-07-24T12:32:40;3.78;;;3.50;;
25333;SDS011;24559;53.590;9.764;2023-07-24T12:35:10;3.25;;;3.05;;
25333;SDS011;24559;53.590;9.764;2023-07-24T12:37:36;3.47;;;3.17;;
25333;SDS011;24559;53.590;9.764;2023-07-24T12:40:04;3.45;;;3.20;;
25333;SDS011;24559;53.590;9.764;2023-07-24T12:42:31;3.10;;;2.90;;
25333;SDS011;24559;53.590;9.764;2023-07-24T12:44:57;3.30;;;3.15;;
25333;SDS011;24559;53.590;9.764;2023-07-24T12:47:23;4.22;;;3.83;;
25333;SDS011;24559;53.590;9.764;2023-07-24T12:49:49;3.20;;;3.10;;
25333;SDS011;24559;53.590;9.764;2023-07-24T12:52:17;3.33;;;3.13;;
25333;SDS011;24559;53.590;9.764;2023-07-24T12:54:44;3.92;;;3.08;;
25333;SDS011;24559;53.590;9.764;2023-07-24T12:57:10;3.15;;;2.95;;
25333;SDS011;24559;53.590;9.764;2023-07-24T12:59:36;3.40;;;3.13;;
25333;SDS011;24559;53.590;9.764;2023-07-24T13:02:02;3.50;;;3.20;;
25333;SDS011;24559;53.590;9.764;2023-07-24T13:04:28;3.17;;;2.97;;
25333;SDS011;24559;53.590;9.764;2023-07-24T13:06:54;3.08;;;2.88;;
25333;SDS011;24559;53.590;9.764;2023-07-24T13:09:20;2.92;;;2.83;;
25333;SDS011;24559;53.590;9.764;2023-07-24T13:11:48;3.50;;;3.30;;
25333;SDS011;24559;53.590;9.764;2023-07-24T13:14:16;3.47;;;3.28;;
25333;SDS011;24559;53.590;9.764;2023-07-24T13:16:43;4.57;;;3.30;;
25333;SDS011;24559;53.590;9.764;2023-07-24T13:19:10;3.20;;;3.00;;
25333;SDS011;24559;53.590;9.764;2023-07-24T13:21:36;3.40;;;3.10;;
25333;SDS011;24559;53.590;9.764;2023-07-24T13:24:02;3.00;;;2.90;;
25333;SDS011;24559;53.590;9.764;2023-07-24T13:26:28;3.38;;;3.17;;
25333;SDS011;24559;53.590;9.764;2023-07-24T13:28:54;3.50;;;3.30;;
25333;SDS011;24559;53.590;9.764;2023-07-24T13:31:21;3.22;;;3.13;;
25333;SDS011;24559;53.590;9.764;2023-07-24T13:33:47;8.63;;;3.63;;
25333;SDS011;24559;53.590;9.764;2023-07-24T13:36:14;3.33;;;3.13;;
25333;SDS011;24559;53.590;9.764;2023-07-24T13:38:40;3.65;;;3.45;;
25333;SDS011;24559;53.590;9.764;2023-07-24T13:41:07;3.70;;;3.45;;
25333;SDS011;24559;53.590;9.764;2023-07-24T13:43:34;3.97;;;3.78;;
25333;SDS011;24559;53.590;9.764;2023-07-24T13:46:00;3.53;;;3.22;;
25333;SDS011;24559;53.590;9.764;2023-07-24T13:48:29;3.35;;;3.15;;
25333;SDS011;24559;53.590;9.764;2023-07-24T13:50:58;3.80;;;3.60;;
25333;SDS011;24559;53.590;9.764;2023-07-24T13:53:24;3.50;;;3.30;;
25333;SDS011;24559;53.590;9.764;2023-07-24T13:55:51;3.70;;;3.40;;
25333;SDS011;24559;53.590;9.764;2023-07-24T13:58:17;4.18;;;3.85;;
25333;SDS011;24559;53.590;9.764;2023-07-24T14:00:43;3.50;;;3.30;;
25333;SDS011;24559;53.590;9.764;2023-07-24T14:03:10;3.80;;;3.60;;
25333;SDS011;24559;53.590;9.764;2023-07-24T14:05:36;5.55;;;4.05;;
25333;SDS011;24559;53.590;9.764;2023-07-24T14:08:02;4.00;;;3.70;;
25333;SDS011;24559;53.590;9.764;2023-07-24T14:10:29;3.80;;;3.55;;
25333;SDS011;24559;53.590;9.764;2023-07-24T14:12:55;3.70;;;3.50;;
25333;SDS011;24559;53.590;9.764;2023-07-24T14:15:21;3.72;;;3.53;;
25333;SDS011;24559;53.590;9.764;2023-07-24T14:17:47;3.90;;;3.60;;
25333;SDS011;24559;53.590;9.764;2023-07-24T14:20:13;3.60;;;3.30;;
25333;SDS011;24559;53.590;9.764;2023-07-24T14:22:40;4.05;;;3.65;;
25333;SDS011;24559;53.590;9.764;2023-07-24T14:25:06;4.18;;;3.33;;
25333;SDS011;24559;53.590;9.764;2023-07-24T14:27:32;4.13;;;3.53;;
25333;SDS011;24559;53.590;9.764;2023-07-24T14:29:58;3.85;;;3.58;;
25333;SDS011;24559;53.590;9.764;2023-07-24T14:32:25;3.83;;;3.53;;
25333;SDS011;24559;53.590;9.764;2023-07-24T14:34:51;3.60;;;3.40;;
25333;SDS011;24559;53.590;9.764;2023-07-24T14:37:18;3.78;;;3.58;;
25333;SDS011;24559;53.590;9.764;2023-07-24T14:39:44;3.97;;;3.50;;
25333;SDS011;24559;53.590;9.764;2023-07-24T14:42:11;4.55;;;4.18;;
25333;SDS011;24559;53.590;9.764;2023-07-24T14:44:37;6.03;;;4.50;;
25333;SDS011;24559;53.590;9.764;2023-07-24T14:47:04;6.18;;;4.63;;
25333;SDS011;24559;53.590;9.764;2023-07-24T14:49:30;7.85;;;4.32;;
25333;SDS011;24559;53.590;9.764;2023-07-24T14:51:56;10.32;;;4.85;;
25333;SDS011;24559;53.590;9.764;2023-07-24T14:54:23;7.38;;;4.90;;
25333;SDS011;24559;53.590;9.764;2023-07-24T14:56:49;5.25;;;4.75;;